Current Weather

Lewis University

Chicago/Romeoville, Illinois (KLOT)

Report from: Tuesday, June 18, 2024 6:45 AM CDT
Current time: Tuesday, June 18, 2024 7:06 AM CDT

Nearby weather – Weather history – Daily summaries
Weather forecast

Temperature25.0°C (77.0°F)
Dew point21.0°C (69.8°F)
Winds 12 kts (6.2 m/s, 13.8 mph) South (180°)
Wind gusts 18 kts (9.3 m/s, 20.7 mph)
Visibility10 mi. (16.1 km)
Clouds Ceiling: Broken clouds 2,700 ft. (823 m)
Broken clouds 12,000 ft. (3,658 m)
Altimeter30.00 in.Hg (1016 mB)
Relative humidity79 %
Density altitude1,404 ft. (428 m)
Flight conditions Marginal Visual Meteorological Conditions
Raw dataKLOT 181145Z 18012G18KT 10SM BKN027 BKN120 25/21 A3000
An error has occurred. This application may no longer respond until reloaded. Reload 🗙